sensor_id;sensor_type;location;lat;lon;timestamp;pressure;altitude;pressure_sealevel;temperature;humidity
70127;BME280;57491;42.694;23.314;2023-04-28T00:00:36;95341.38;;;8.85;44.01
70127;BME280;57491;42.694;23.314;2023-04-28T00:03:03;95345.25;;;8.81;44.77
70127;BME280;57491;42.694;23.314;2023-04-28T00:05:30;95342.00;;;8.79;44.50
70127;BME280;57491;42.694;23.314;2023-04-28T00:07:57;95355.63;;;8.81;47.14
70127;BME280;57491;42.694;23.314;2023-04-28T00:10:29;95357.22;;;8.74;45.06
70127;BME280;57491;42.694;23.314;2023-04-28T00:12:56;95354.97;;;8.55;45.39
70127;BME280;57491;42.694;23.314;2023-04-28T00:15:23;95350.75;;;8.54;45.41
70127;BME280;57491;42.694;23.314;2023-04-28T00:17:50;95362.06;;;8.52;46.46
70127;BME280;57491;42.694;23.314;2023-04-28T00:20:19;95355.25;;;8.51;46.06
70127;BME280;57491;42.694;23.314;2023-04-28T00:22:46;95347.81;;;8.48;45.59
70127;BME280;57491;42.694;23.314;2023-04-28T00:25:14;95348.47;;;8.50;45.85
70127;BME280;57491;42.694;23.314;2023-04-28T00:27:42;95355.09;;;8.45;45.16
70127;BME280;57491;42.694;23.314;2023-04-28T00:30:10;95352.09;;;8.24;45.82
70127;BME280;57491;42.694;23.314;2023-04-28T00:32:37;95356.97;;;8.27;45.99
70127;BME280;57491;42.694;23.314;2023-04-28T00:35:04;95356.16;;;8.26;46.50
70127;BME280;57491;42.694;23.314;2023-04-28T00:37:35;95329.06;;;8.13;45.91
70127;BME280;57491;42.694;23.314;2023-04-28T00:40:02;95352.75;;;8.26;46.07
70127;BME280;57491;42.694;23.314;2023-04-28T00:42:29;95357.78;;;8.27;46.58
70127;BME280;57491;42.694;23.314;2023-04-28T00:44:58;95363.91;;;8.18;46.01
70127;BME280;57491;42.694;23.314;2023-04-28T00:47:30;95361.94;;;8.12;47.09
70127;BME280;57491;42.694;23.314;2023-04-28T00:49:57;95366.13;;;8.05;46.67
70127;BME280;57491;42.694;23.314;2023-04-28T00:52:24;95358.63;;;7.94;47.00
70127;BME280;57491;42.694;23.314;2023-04-28T00:54:52;95364.44;;;7.88;47.11
70127;BME280;57491;42.694;23.314;2023-04-28T00:57:19;95358.09;;;7.82;47.69
70127;BME280;57491;42.694;23.314;2023-04-28T00:59:46;95352.91;;;7.82;47.26
70127;BME280;57491;42.694;23.314;2023-04-28T01:02:14;95367.03;;;7.88;47.59
70127;BME280;57491;42.694;23.314;2023-04-28T01:04:43;95370.06;;;7.83;47.60
70127;BME280;57491;42.694;23.314;2023-04-28T01:07:10;95372.94;;;7.80;48.24
70127;BME280;57491;42.694;23.314;2023-04-28T01:09:38;95369.72;;;7.78;47.78
70127;BME280;57491;42.694;23.314;2023-04-28T01:12:05;95372.59;;;7.75;47.87
70127;BME280;57491;42.694;23.314;2023-04-28T01:14:32;95373.41;;;7.76;47.85
70127;BME280;57491;42.694;23.314;2023-04-28T01:17:00;95366.13;;;7.71;47.68
70127;BME280;57491;42.694;23.314;2023-04-28T01:19:28;95370.34;;;7.72;47.63
70127;BME280;57491;42.694;23.314;2023-04-28T01:21:56;95375.28;;;7.66;48.93
70127;BME280;57491;42.694;23.314;2023-04-28T01:24:24;95375.16;;;7.67;47.97
70127;BME280;57491;42.694;23.314;2023-04-28T01:26:51;95375.66;;;7.71;47.62
70127;BME280;57491;42.694;23.314;2023-04-28T01:29:18;95380.81;;;7.71;47.60
70127;BME280;57491;42.694;23.314;2023-04-28T01:31:45;95379.22;;;7.70;48.13
70127;BME280;57491;42.694;23.314;2023-04-28T01:34:12;95381.34;;;7.74;47.34
70127;BME280;57491;42.694;23.314;2023-04-28T01:36:40;95382.94;;;7.75;49.01
70127;BME280;57491;42.694;23.314;2023-04-28T01:39:07;95378.59;;;7.76;48.64
70127;BME280;57491;42.694;23.314;2023-04-28T01:41:35;95379.75;;;7.81;46.98
70127;BME280;57491;42.694;23.314;2023-04-28T01:44:03;95379.41;;;7.76;47.23
70127;BME280;57491;42.694;23.314;2023-04-28T01:46:32;95373.53;;;7.66;48.87
70127;BME280;57491;42.694;23.314;2023-04-28T01:48:59;95375.66;;;7.71;48.84
70127;BME280;57491;42.694;23.314;2023-04-28T01:51:26;95377.59;;;7.69;47.57
70127;BME280;57491;42.694;23.314;2023-04-28T01:53:53;95371.94;;;7.65;47.16
70127;BME280;57491;42.694;23.314;2023-04-28T01:56:20;95364.44;;;7.62;47.57
70127;BME280;57491;42.694;23.314;2023-04-28T01:58:49;95379.22;;;7.70;47.32
70127;BME280;57491;42.694;23.314;2023-04-28T02:01:16;95376.56;;;7.61;48.45
70127;BME280;57491;42.694;23.314;2023-04-28T02:03:43;95377.19;;;7.55;46.84
70127;BME280;57491;42.694;23.314;2023-04-28T02:06:10;95380.75;;;7.54;47.28
70127;BME280;57491;42.694;23.314;2023-04-28T02:08:37;95388.47;;;7.46;47.23
70127;BME280;57491;42.694;23.314;2023-04-28T02:11:04;95381.13;;;7.34;48.07
70127;BME280;57491;42.694;23.314;2023-04-28T02:13:31;95382.16;;;7.23;47.94
70127;BME280;57491;42.694;23.314;2023-04-28T02:16:00;95384.53;;;7.16;49.35
70127;BME280;57491;42.694;23.314;2023-04-28T02:18:29;95390.13;;;7.12;48.08
70127;BME280;57491;42.694;23.314;2023-04-28T02:20:55;95394.00;;;7.08;48.22
70127;BME280;57491;42.694;23.314;2023-04-28T02:23:22;95397.84;;;7.04;48.38
70127;BME280;57491;42.694;23.314;2023-04-28T02:25:49;95392.91;;;6.93;48.84
70127;BME280;57491;42.694;23.314;2023-04-28T02:28:26;95401.31;;;6.95;49.42
70127;BME280;57491;42.694;23.314;2023-04-28T02:31:03;95390.91;;;6.87;49.27
70127;BME280;57491;42.694;23.314;2023-04-28T02:33:30;95403.41;;;6.91;49.46
70127;BME280;57491;42.694;23.314;2023-04-28T02:35:58;95392.25;;;6.91;49.31
70127;BME280;57491;42.694;23.314;2023-04-28T02:38:25;95393.47;;;7.04;49.30
70127;BME280;57491;42.694;23.314;2023-04-28T02:40:56;95400.19;;;7.15;50.51
70127;BME280;57491;42.694;23.314;2023-04-28T02:43:24;95406.69;;;7.19;49.09
70127;BME280;57491;42.694;23.314;2023-04-28T02:45:51;95396.34;;;7.19;50.33
70127;BME280;57491;42.694;23.314;2023-04-28T02:48:20;95403.41;;;7.35;51.23
70127;BME280;57491;42.694;23.314;2023-04-28T02:50:47;95410.06;;;7.37;48.26
70127;BME280;57491;42.694;23.314;2023-04-28T02:53:14;95407.75;;;7.34;48.53
70127;BME280;57491;42.694;23.314;2023-04-28T02:55:41;95412.19;;;7.42;49.13
70127;BME280;57491;42.694;23.314;2023-04-28T02:58:08;95409.75;;;7.40;48.81
70127;BME280;57491;42.694;23.314;2023-04-28T03:00:35;95411.75;;;7.46;52.02
70127;BME280;57491;42.694;23.314;2023-04-28T03:03:02;95422.16;;;7.54;49.56
70127;BME280;57491;42.694;23.314;2023-04-28T03:05:31;95398.31;;;7.43;48.15
70127;BME280;57491;42.694;23.314;2023-04-28T03:07:58;95420.50;;;7.53;48.74
70127;BME280;57491;42.694;23.314;2023-04-28T03:10:25;95420.81;;;7.50;49.00
70127;BME280;57491;42.694;23.314;2023-04-28T03:12:52;95424.72;;;7.54;48.53
70127;BME280;57491;42.694;23.314;2023-04-28T03:15:19;95423.88;;;7.46;50.23
70127;BME280;57491;42.694;23.314;2023-04-28T03:17:46;95425.91;;;7.60;51.46
70127;BME280;57491;42.694;23.314;2023-04-28T03:20:13;95430.41;;;7.58;48.99
70127;BME280;57491;42.694;23.314;2023-04-28T03:22:41;95398.75;;;7.38;49.41
70127;BME280;57491;42.694;23.314;2023-04-28T03:25:08;95402.13;;;7.39;51.97
70127;BME280;57491;42.694;23.314;2023-04-28T03:27:35;95437.66;;;7.54;50.79
70127;BME280;57491;42.694;23.314;2023-04-28T03:30:03;95445.56;;;7.53;48.41
70127;BME280;57491;42.694;23.314;2023-04-28T03:32:30;95445.88;;;7.50;50.60
70127;BME280;57491;42.694;23.314;2023-04-28T03:34:57;95440.28;;;7.37;49.05
70127;BME280;57491;42.694;23.314;2023-04-28T03:37:25;95454.09;;;7.45;48.61
70127;BME280;57491;42.694;23.314;2023-04-28T03:39:53;95463.31;;;7.48;50.57
70127;BME280;57491;42.694;23.314;2023-04-28T03:42:20;95452.19;;;7.47;50.89
70127;BME280;57491;42.694;23.314;2023-04-28T03:44:47;95456.69;;;7.45;47.87
70127;BME280;57491;42.694;23.314;2023-04-28T03:47:14;95467.75;;;7.55;48.33
70127;BME280;57491;42.694;23.314;2023-04-28T03:49:41;95466.78;;;7.56;52.17
70127;BME280;57491;42.694;23.314;2023-04-28T03:52:08;95470.31;;;7.73;48.25
70127;BME280;57491;42.694;23.314;2023-04-28T03:54:35;95478.56;;;7.77;46.98
70127;BME280;57491;42.694;23.314;2023-04-28T03:57:04;95480.25;;;7.86;46.57
70127;BME280;57491;42.694;23.314;2023-04-28T03:59:31;95481.25;;;7.93;46.86
70127;BME280;57491;42.694;23.314;2023-04-28T04:01:58;95477.06;;;7.92;47.09
70127;BME280;57491;42.694;23.314;2023-04-28T04:04:25;95494.88;;;7.95;46.28
70127;BME280;57491;42.694;23.314;2023-04-28T04:06:52;95496.50;;;7.96;45.78
70127;BME280;57491;42.694;23.314;2023-04-28T04:09:19;95495.88;;;8.02;46.20
70127;BME280;57491;42.694;23.314;2023-04-28T04:11:46;95493.19;;;8.12;46.66
70127;BME280;57491;42.694;23.314;2023-04-28T04:14:14;95493.41;;;8.18;45.90
70127;BME280;57491;42.694;23.314;2023-04-28T04:16:42;95499.56;;;8.25;44.79
70127;BME280;57491;42.694;23.314;2023-04-28T04:19:09;95499.28;;;8.28;45.25
70127;BME280;57491;42.694;23.314;2023-04-28T04:21:36;95488.63;;;8.31;44.47
70127;BME280;57491;42.694;23.314;2023-04-28T04:24:03;95511.38;;;8.45;44.80
70127;BME280;57491;42.694;23.314;2023-04-28T04:26:30;95500.09;;;8.55;44.77
70127;BME280;57491;42.694;23.314;2023-04-28T04:28:58;95513.03;;;8.55;43.82
70127;BME280;57491;42.694;23.314;2023-04-28T04:31:26;95507.72;;;8.64;45.53
70127;BME280;57491;42.694;23.314;2023-04-28T04:33:53;95517.94;;;8.74;43.73
70127;BME280;57491;42.694;23.314;2023-04-28T04:36:20;95507.13;;;8.78;43.68
70127;BME280;57491;42.694;23.314;2023-04-28T04:38:47;95518.97;;;8.89;45.98
70127;BME280;57491;42.694;23.314;2023-04-28T04:41:14;95514.28;;;8.92;45.13
70127;BME280;57491;42.694;23.314;2023-04-28T04:43:41;95505.69;;;8.84;43.40
70127;BME280;57491;42.694;23.314;2023-04-28T04:46:08;95512.50;;;8.93;43.31
70127;BME280;57491;42.694;23.314;2023-04-28T04:48:37;95490.13;;;8.84;43.40
70127;BME280;57491;42.694;23.314;2023-04-28T04:51:04;95521.31;;;9.00;42.01
70127;BME280;57491;42.694;23.314;2023-04-28T04:53:31;95515.09;;;8.93;42.40
70127;BME280;57491;42.694;23.314;2023-04-28T04:55:59;95532.31;;;9.02;42.34
70127;BME280;57491;42.694;23.314;2023-04-28T04:58:26;95521.31;;;9.08;42.94
70127;BME280;57491;42.694;23.314;2023-04-28T05:00:53;95526.22;;;9.27;42.54
70127;BME280;57491;42.694;23.314;2023-04-28T05:03:20;95539.06;;;9.45;41.84
70127;BME280;57491;42.694;23.314;2023-04-28T05:05:49;95536.47;;;9.45;41.47
70127;BME280;57491;42.694;23.314;2023-04-28T05:08:16;95536.28;;;9.55;41.38
70127;BME280;57491;42.694;23.314;2023-04-28T05:10:43;95542.63;;;9.52;41.70
70127;BME280;57491;42.694;23.314;2023-04-28T05:13:10;95543.78;;;9.66;41.66
70127;BME280;57491;42.694;23.314;2023-04-28T05:15:37;95542.31;;;9.71;41.38
70127;BME280;57491;42.694;23.314;2023-04-28T05:18:04;95544.09;;;9.87;44.05
70127;BME280;57491;42.694;23.314;2023-04-28T05:20:35;95541.84;;;10.16;41.39
70127;BME280;57491;42.694;23.314;2023-04-28T05:23:04;95546.69;;;10.36;39.90
70127;BME280;57491;42.694;23.314;2023-04-28T05:25:31;95543.88;;;10.45;40.02
70127;BME280;57491;42.694;23.314;2023-04-28T05:27:58;95547.97;;;10.40;39.93
70127;BME280;57491;42.694;23.314;2023-04-28T05:30:29;95547.34;;;10.29;40.02
70127;BME280;57491;42.694;23.314;2023-04-28T05:32:56;95543.25;;;10.27;40.57
70127;BME280;57491;42.694;23.314;2023-04-28T05:35:23;95547.97;;;10.23;42.13
70127;BME280;57491;42.694;23.314;2023-04-28T05:37:51;95541.16;;;10.39;42.74
70127;BME280;57491;42.694;23.314;2023-04-28T05:40:19;95533.31;;;10.47;39.50
70127;BME280;57491;42.694;23.314;2023-04-28T05:42:47;95535.44;;;10.43;40.13
70127;BME280;57491;42.694;23.314;2023-04-28T05:45:14;95526.81;;;10.51;40.35
70127;BME280;57491;42.694;23.314;2023-04-28T05:47:41;95534.06;;;10.71;41.07
70127;BME280;57491;42.694;23.314;2023-04-28T05:50:08;95543.00;;;11.08;39.28
70127;BME280;57491;42.694;23.314;2023-04-28T05:52:36;95541.41;;;10.99;39.59
70127;BME280;57491;42.694;23.314;2023-04-28T05:55:03;95538.19;;;10.97;39.54
70127;BME280;57491;42.694;23.314;2023-04-28T05:57:32;95538.44;;;11.10;38.91
70127;BME280;57491;42.694;23.314;2023-04-28T05:59:59;95536.25;;;11.22;39.18
70127;BME280;57491;42.694;23.314;2023-04-28T06:02:26;95539.81;;;11.29;40.35
70127;BME280;57491;42.694;23.314;2023-04-28T06:04:53;95542.34;;;11.37;37.78
70127;BME280;57491;42.694;23.314;2023-04-28T06:07:20;95544.50;;;11.56;38.47
70127;BME280;57491;42.694;23.314;2023-04-28T06:09:49;95547.66;;;11.74;37.71
70127;BME280;57491;42.694;23.314;2023-04-28T06:12:16;95543.81;;;11.62;37.49
70127;BME280;57491;42.694;23.314;2023-04-28T06:14:44;95536.28;;;11.75;38.11
70127;BME280;57491;42.694;23.314;2023-04-28T06:17:11;95541.97;;;11.71;37.37
70127;BME280;57491;42.694;23.314;2023-04-28T06:19:39;95535.94;;;11.70;37.07
70127;BME280;57491;42.694;23.314;2023-04-28T06:22:05;95542.16;;;11.92;37.40
70127;BME280;57491;42.694;23.314;2023-04-28T06:24:33;95538.25;;;12.11;36.44
70127;BME280;57491;42.694;23.314;2023-04-28T06:27:00;95544.00;;;12.21;36.76
70127;BME280;57491;42.694;23.314;2023-04-28T06:29:27;95544.41;;;12.47;37.33
70127;BME280;57491;42.694;23.314;2023-04-28T06:31:55;95548.22;;;12.74;35.82
70127;BME280;57491;42.694;23.314;2023-04-28T06:34:24;95540.28;;;12.82;35.21
70127;BME280;57491;42.694;23.314;2023-04-28T06:36:53;95545.22;;;12.91;35.29
70127;BME280;57491;42.694;23.314;2023-04-28T06:39:20;95541.91;;;12.68;35.25
70127;BME280;57491;42.694;23.314;2023-04-28T06:41:47;95535.34;;;12.72;35.56
70127;BME280;57491;42.694;23.314;2023-04-28T06:44:14;95536.84;;;12.67;37.01
70127;BME280;57491;42.694;23.314;2023-04-28T06:46:42;95534.34;;;12.73;35.45
70127;BME280;57491;42.694;23.314;2023-04-28T06:49:12;95525.44;;;12.68;34.83
70127;BME280;57491;42.694;23.314;2023-04-28T06:51:39;95539.19;;;12.76;35.37
70127;BME280;57491;42.694;23.314;2023-04-28T06:54:06;95528.13;;;12.74;35.56
70127;BME280;57491;42.694;23.314;2023-04-28T06:56:34;95530.66;;;12.82;34.55
70127;BME280;57491;42.694;23.314;2023-04-28T06:59:01;95530.28;;;12.85;34.78
70127;BME280;57491;42.694;23.314;2023-04-28T07:01:28;95523.88;;;13.03;35.25
70127;BME280;57491;42.694;23.314;2023-04-28T07:03:55;95531.75;;;13.24;35.51
70127;BME280;57491;42.694;23.314;2023-04-28T07:06:24;95519.75;;;13.44;34.04
70127;BME280;57491;42.694;23.314;2023-04-28T07:08:52;95529.16;;;13.60;33.83
70127;BME280;57491;42.694;23.314;2023-04-28T07:11:20;95532.88;;;13.72;32.94
70127;BME280;57491;42.694;23.314;2023-04-28T07:13:47;95534.66;;;13.93;32.99
70127;BME280;57491;42.694;23.314;2023-04-28T07:16:16;95530.28;;;14.21;33.53
70127;BME280;57491;42.694;23.314;2023-04-28T07:18:43;95537.59;;;14.32;32.00
70127;BME280;57491;42.694;23.314;2023-04-28T07:21:12;95518.91;;;14.35;33.34
70127;BME280;57491;42.694;23.314;2023-04-28T07:23:40;95531.16;;;14.56;31.79
70127;BME280;57491;42.694;23.314;2023-04-28T07:26:07;95508.25;;;14.64;30.94
70127;BME280;57491;42.694;23.314;2023-04-28T07:28:35;95517.63;;;14.87;30.19
70127;BME280;57491;42.694;23.314;2023-04-28T07:31:02;95527.03;;;15.15;30.60
70127;BME280;57491;42.694;23.314;2023-04-28T07:33:28;95520.03;;;15.36;30.89
70127;BME280;57491;42.694;23.314;2023-04-28T07:35:56;95510.88;;;15.66;29.99
70127;BME280;57491;42.694;23.314;2023-04-28T07:38:23;95524.00;;;15.92;29.83
70127;BME280;57491;42.694;23.314;2023-04-28T07:40:51;95509.47;;;16.03;31.20
70127;BME280;57491;42.694;23.314;2023-04-28T07:43:19;95518.97;;;16.37;28.42
70127;BME280;57491;42.694;23.314;2023-04-28T07:45:46;95517.75;;;16.20;27.59
70127;BME280;57491;42.694;23.314;2023-04-28T07:48:14;95519.19;;;16.02;27.98
70127;BME280;57491;42.694;23.314;2023-04-28T07:50:41;95512.09;;;15.96;28.17
70127;BME280;57491;42.694;23.314;2023-04-28T07:53:08;95514.72;;;16.03;28.46
70127;BME280;57491;42.694;23.314;2023-04-28T07:55:35;95515.72;;;15.95;27.90
70127;BME280;57491;42.694;23.314;2023-04-28T07:58:04;95511.72;;;16.06;28.11
70127;BME280;57491;42.694;23.314;2023-04-28T08:00:31;95516.31;;;16.30;29.25
70127;BME280;57491;42.694;23.314;2023-04-28T08:02:58;95514.88;;;16.67;27.90
70127;BME280;57491;42.694;23.314;2023-04-28T08:05:25;95512.03;;;16.82;26.95
70127;BME280;57491;42.694;23.314;2023-04-28T08:07:52;95503.91;;;16.90;27.31
70127;BME280;57491;42.694;23.314;2023-04-28T08:10:19;95513.25;;;17.30;26.85
70127;BME280;57491;42.694;23.314;2023-04-28T08:12:46;95511.56;;;17.42;27.78
70127;BME280;57491;42.694;23.314;2023-04-28T08:15:14;95513.88;;;17.70;30.81
70127;BME280;57491;42.694;23.314;2023-04-28T08:17:42;95513.91;;;17.95;26.48
70127;BME280;57491;42.694;23.314;2023-04-28T08:20:10;95509.03;;;17.99;26.42
70127;BME280;57491;42.694;23.314;2023-04-28T08:22:39;95510.66;;;18.00;25.04
70127;BME280;57491;42.694;23.314;2023-04-28T08:25:07;95510.16;;;18.09;26.66
70127;BME280;57491;42.694;23.314;2023-04-28T08:27:35;95498.53;;;18.23;25.57
70127;BME280;57491;42.694;23.314;2023-04-28T08:30:06;95498.09;;;18.26;24.30
70127;BME280;57491;42.694;23.314;2023-04-28T08:32:34;95500.84;;;18.56;25.16
70127;BME280;57491;42.694;23.314;2023-04-28T08:35:01;95482.19;;;17.90;24.56
70127;BME280;57491;42.694;23.314;2023-04-28T08:37:29;95500.59;;;17.59;25.35
70127;BME280;57491;42.694;23.314;2023-04-28T08:39:56;95504.22;;;17.64;25.77
70127;BME280;57491;42.694;23.314;2023-04-28T08:42:28;95495.03;;;18.05;26.09
70127;BME280;57491;42.694;23.314;2023-04-28T08:44:56;95505.78;;;18.28;25.11
70127;BME280;57491;42.694;23.314;2023-04-28T08:47:32;95499.13;;;18.44;24.44
70127;BME280;57491;42.694;23.314;2023-04-28T08:50:03;95507.25;;;18.67;25.08
70127;BME280;57491;42.694;23.314;2023-04-28T08:52:30;95502.13;;;18.54;24.47
70127;BME280;57491;42.694;23.314;2023-04-28T08:54:59;95498.75;;;18.15;25.47
70127;BME280;57491;42.694;23.314;2023-04-28T08:57:28;95496.22;;;18.09;24.40
70127;BME280;57491;42.694;23.314;2023-04-28T09:00:00;95488.34;;;18.27;24.29
70127;BME280;57491;42.694;23.314;2023-04-28T09:02:28;95495.63;;;18.50;25.10
70127;BME280;57491;42.694;23.314;2023-04-28T09:04:55;95488.50;;;18.93;24.81
70127;BME280;57491;42.694;23.314;2023-04-28T09:07:23;95486.78;;;19.35;24.17
70127;BME280;57491;42.694;23.314;2023-04-28T09:10:20;95475.97;;;19.96;22.89
70127;BME280;57491;42.694;23.314;2023-04-28T09:12:50;95469.84;;;20.37;22.00
70127;BME280;57491;42.694;23.314;2023-04-28T09:15:28;95466.50;;;20.65;21.64
70127;BME280;57491;42.694;23.314;2023-04-28T09:17:56;95466.38;;;20.83;21.93
70127;BME280;57491;42.694;23.314;2023-04-28T09:20:25;95459.56;;;20.76;22.24
70127;BME280;57491;42.694;23.314;2023-04-28T09:22:55;95462.91;;;20.83;21.58
70127;BME280;57491;42.694;23.314;2023-04-28T09:25:23;95465.50;;;21.18;21.44
70127;BME280;57491;42.694;23.314;2023-04-28T09:27:52;95453.50;;;21.27;21.24
70127;BME280;57491;42.694;23.314;2023-04-28T09:30:37;95453.41;;;21.50;21.13
70127;BME280;57491;42.694;23.314;2023-04-28T09:33:05;95457.00;;;21.89;20.69
70127;BME280;57491;42.694;23.314;2023-04-28T09:35:38;95450.97;;;21.77;20.51
70127;BME280;57491;42.694;23.314;2023-04-28T09:38:07;95460.69;;;21.88;20.20
70127;BME280;57491;42.694;23.314;2023-04-28T09:40:48;95452.16;;;21.69;19.53
70127;BME280;57491;42.694;23.314;2023-04-28T09:43:22;95442.94;;;21.27;19.89
70127;BME280;57491;42.694;23.314;2023-04-28T09:45:50;95446.69;;;21.59;21.34
70127;BME280;57491;42.694;23.314;2023-04-28T09:48:25;95430.41;;;21.96;20.03
70127;BME280;57491;42.694;23.314;2023-04-28T09:50:53;95433.91;;;22.18;20.91
70127;BME280;57491;42.694;23.314;2023-04-28T09:53:22;95432.34;;;22.55;20.05
70127;BME280;57491;42.694;23.314;2023-04-28T09:55:51;95430.91;;;22.86;19.15
70127;BME280;57491;42.694;23.314;2023-04-28T09:58:19;95406.06;;;22.92;20.10
70127;BME280;57491;42.694;23.314;2023-04-28T10:00:51;95415.66;;;23.20;18.89
70127;BME280;57491;42.694;23.314;2023-04-28T10:03:21;95418.38;;;23.25;18.17
70127;BME280;57491;42.694;23.314;2023-04-28T10:05:49;95420.31;;;23.08;18.69
70127;BME280;57491;42.694;23.314;2023-04-28T10:08:18;95407.13;;;22.91;18.31
70127;BME280;57491;42.694;23.314;2023-04-28T10:10:48;95411.84;;;23.11;17.92
70127;BME280;57491;42.694;23.314;2023-04-28T10:13:18;95394.25;;;23.27;18.57
70127;BME280;57491;42.694;23.314;2023-04-28T10:15:45;95408.81;;;23.46;19.04
70127;BME280;57491;42.694;23.314;2023-04-28T10:18:14;95400.91;;;23.29;17.65
70127;BME280;57491;42.694;23.314;2023-04-28T10:20:43;95393.28;;;22.29;18.23
70127;BME280;57491;42.694;23.314;2023-04-28T10:23:45;95410.38;;;21.71;19.15
70127;BME280;57491;42.694;23.314;2023-04-28T10:26:16;95410.91;;;22.02;19.42
70127;BME280;57491;42.694;23.314;2023-04-28T10:28:45;95396.91;;;21.90;19.39
70127;BME280;57491;42.694;23.314;2023-04-28T10:31:14;95408.72;;;22.15;21.46
70127;BME280;57491;42.694;23.314;2023-04-28T10:33:42;95388.88;;;22.56;18.39
70127;BME280;57491;42.694;23.314;2023-04-28T10:36:10;95398.81;;;22.83;18.81
70127;BME280;57491;42.694;23.314;2023-04-28T10:39:07;95386.13;;;23.38;18.73
70127;BME280;57491;42.694;23.314;2023-04-28T10:41:36;95377.69;;;23.73;17.92
70127;BME280;57491;42.694;23.314;2023-04-28T10:47:03;95374.63;;;24.23;17.10
70127;BME280;57491;42.694;23.314;2023-04-28T10:52:48;95356.91;;;24.91;15.68
70127;BME280;57491;42.694;23.314;2023-04-28T10:55:25;95362.81;;;25.13;17.30
70127;BME280;57491;42.694;23.314;2023-04-28T11:00:54;95358.91;;;25.46;16.65
70127;BME280;57491;42.694;23.314;2023-04-28T11:03:47;95355.75;;;25.59;15.66
70127;BME280;57491;42.694;23.314;2023-04-28T11:06:19;95359.19;;;25.55;16.50
70127;BME280;57491;42.694;23.314;2023-04-28T11:08:47;95350.44;;;25.80;16.32
70127;BME280;57491;42.694;23.314;2023-04-28T11:13:53;95347.22;;;25.93;15.71
70127;BME280;57491;42.694;23.314;2023-04-28T11:16:23;95343.72;;;26.23;15.46
70127;BME280;57491;42.694;23.314;2023-04-28T11:18:53;95343.72;;;26.07;14.52
70127;BME280;57491;42.694;23.314;2023-04-28T11:21:22;95346.94;;;26.04;15.83
70127;BME280;57491;42.694;23.314;2023-04-28T11:23:49;95339.72;;;25.34;15.70
70127;BME280;57491;42.694;23.314;2023-04-28T11:26:17;95341.44;;;24.83;16.44
70127;BME280;57491;42.694;23.314;2023-04-28T11:28:48;95338.25;;;24.81;17.39
70127;BME280;57491;42.694;23.314;2023-04-28T11:31:16;95338.97;;;25.54;16.08
70127;BME280;57491;42.694;23.314;2023-04-28T11:33:49;95327.53;;;25.79;16.83
70127;BME280;57491;42.694;23.314;2023-04-28T11:36:29;95325.31;;;26.36;15.85
70127;BME280;57491;42.694;23.314;2023-04-28T11:38:58;95322.97;;;26.89;15.74
70127;BME280;57491;42.694;23.314;2023-04-28T11:41:24;95330.03;;;26.59;14.71
70127;BME280;57491;42.694;23.314;2023-04-28T11:43:52;95322.44;;;25.92;15.62
70127;BME280;57491;42.694;23.314;2023-04-28T11:46:20;95318.41;;;25.44;15.31
70127;BME280;57491;42.694;23.314;2023-04-28T11:48:58;95309.09;;;25.26;15.92
70127;BME280;57491;42.694;23.314;2023-04-28T11:51:29;95316.84;;;25.33;16.82
70127;BME280;57491;42.694;23.314;2023-04-28T11:53:58;95309.59;;;24.93;16.62
70127;BME280;57491;42.694;23.314;2023-04-28T11:56:26;95300.41;;;24.64;16.81
70127;BME280;57491;42.694;23.314;2023-04-28T11:59:03;95306.81;;;24.63;17.79
70127;BME280;57491;42.694;23.314;2023-04-28T12:01:30;95307.53;;;25.51;17.49
70127;BME280;57491;42.694;23.314;2023-04-28T12:03:59;95301.63;;;26.14;16.74
70127;BME280;57491;42.694;23.314;2023-04-28T12:06:26;95302.94;;;26.32;15.84
70127;BME280;57491;42.694;23.314;2023-04-28T12:08:54;95300.59;;;26.00;16.38
70127;BME280;57491;42.694;23.314;2023-04-28T12:11:22;95291.53;;;25.91;17.02
70127;BME280;57491;42.694;23.314;2023-04-28T12:14:03;95289.34;;;26.29;16.33
70127;BME280;57491;42.694;23.314;2023-04-28T12:16:38;95284.81;;;26.14;16.62
70127;BME280;57491;42.694;23.314;2023-04-28T12:19:10;95288.88;;;25.41;16.30
70127;BME280;57491;42.694;23.314;2023-04-28T12:21:38;95283.53;;;25.00;19.25
70127;BME280;57491;42.694;23.314;2023-04-28T12:24:15;95267.41;;;24.55;18.22
70127;BME280;57491;42.694;23.314;2023-04-28T12:26:43;95278.47;;;23.79;17.83
70127;BME280;57491;42.694;23.314;2023-04-28T12:29:39;95269.00;;;23.56;19.31
70127;BME280;57491;42.694;23.314;2023-04-28T12:32:08;95265.78;;;23.49;18.11
70127;BME280;57491;42.694;23.314;2023-04-28T12:34:36;95269.53;;;22.95;18.57
70127;BME280;57491;42.694;23.314;2023-04-28T12:37:04;95267.75;;;22.08;19.05
70127;BME280;57491;42.694;23.314;2023-04-28T12:39:32;95265.66;;;21.55;19.17
70127;BME280;57491;42.694;23.314;2023-04-28T12:42:00;95261.91;;;21.51;20.62
70127;BME280;57491;42.694;23.314;2023-04-28T12:44:31;95257.19;;;21.08;22.72
70127;BME280;57491;42.694;23.314;2023-04-28T12:47:01;95245.00;;;21.19;21.81
70127;BME280;57491;42.694;23.314;2023-04-28T12:49:28;95247.06;;;21.17;21.02
70127;BME280;57491;42.694;23.314;2023-04-28T12:51:57;95240.72;;;21.01;21.07
70127;BME280;57491;42.694;23.314;2023-04-28T12:54:24;95254.06;;;20.94;23.22
70127;BME280;57491;42.694;23.314;2023-04-28T12:56:51;95246.03;;;20.73;21.02
70127;BME280;57491;42.694;23.314;2023-04-28T12:59:19;95241.66;;;20.50;22.12
70127;BME280;57491;42.694;23.314;2023-04-28T13:01:47;95241.28;;;20.30;21.72
70127;BME280;57491;42.694;23.314;2023-04-28T13:04:14;95240.28;;;19.96;21.93
70127;BME280;57491;42.694;23.314;2023-04-28T13:06:41;95228.94;;;19.95;21.73
70127;BME280;57491;42.694;23.314;2023-04-28T13:09:10;95232.69;;;20.11;23.54
70127;BME280;57491;42.694;23.314;2023-04-28T13:11:38;95227.09;;;20.08;21.66
70127;BME280;57491;42.694;23.314;2023-04-28T13:14:05;95211.31;;;19.84;22.29